Portada
METAR-TAF:

METAR-TAF

Aeropuertos :

Curazao, Antillas Neerlandesas

Aeropuerto Internacional Hato

latitud: 12-12N, longitud: 068-58W, altitud: 9 m

Observación

El informe se hizo hace 1 hora y 1 minutos, a las 01:00 UTC
Viento 11 kt del este
Temperatura 28°C
Humedad 79%
Presión 1013 hPa
Visibilidad 10 km o más
Escasas nubes a una altura de 1800 ft

METAR: TNCC 280100Z 10011KT 9999 FEW018 28/24 Q1013 NOSIG

Hora: 22:01 (02:01 UTC)

Pronóstico

El informe se hizo hace 4 horas y 1 minutos, a las 22:00 UTC
Pronóstico válido del 28 a las 00 UTC al 28 a las 24 UTC
Viento 14 kt del este
Visibilidad 10 km o más
Nubes dispersas a una altura de 2000 ft

TAF: TNCC 272200Z 2800/2824 09014KT 9999 SCT020

Observaciones y pronósticos meteorológicos de más de 4000 aeropuertos (mensajes METAR y TAF).

Los puntos amarillos y rojos representan las estaciones disponibles.

Ponga el ratón en el punto deseado para ver el nombre de la estación.

Haga clic para ver las observaciones y los pronósticos meteorológicos.

Para cambiar el mapa : haga clic en los botones verdes con una cruz de color negro para hacer un zoom, en el botón verde con un guión para alejar o en las flechas verdes para mapas adyacentes.


METAR-TAF: